Data for 03/21/2010

Time Sea-Level Adjusted Pressure Absolute Pressure Temperature Relative Humidity Dew Point   
(mb) (inHg) (mb) (inHg) (C) (F) (%) (C) (F)
00:05 1019 30.09 849 25.07 1.9 35.4 38 -10.8 12.5
00:10 1019 30.09 849 25.07 3.2 37.8 34 -11.3 11.6
00:15 1019 30.09 849 25.07 3.6 38.5 35 -10.6 12.9
00:20 1019 30.09 849 25.07 3.3 37.9 36 -10.5 13.1
00:25 1019 30.09 849 25.07 3.1 37.7 35 -10.8 12.5
00:30 1019 30.09 849 25.07 3.3 38 36 -10.5 13.1
00:35 1019 30.09 849 25.07 3.3 38 37 -10.1 13.9
00:40 1019 30.09 849 25.07 3.1 37.6 38 -9.8 14.4
00:45 1020 30.12 849 25.07 3 37.5 39 -9.7 14.6
00:50 1020 30.12 849 25.07 2.8 37 39 -10 14.1
00:55 1020 30.12 849 25.07 2.9 37.2 45 -8 17.6
01:00 1020 30.12 849 25.07 2.2 36 41 -9.7 14.5
01:05 1020 30.12 849 25.07 2.1 35.7 41 -9.8 14.4
01:10 1020 30.12 849 25.07 2 35.6 41 -10 14
01:15 1020 30.12 849 25.07 2.2 36 41 -9.6 14.7
01:20 1020 30.12 849 25.07 2.3 36.1 41 -9.6 14.7
01:25 1020 30.12 849 25.07 2.3 36.2 43 -8.9 16
01:30 1020 30.12 849 25.07 1.6 34.8 47 -8.6 16.5
01:35 1019 30.09 849 25.07 0.8 33.4 48 -8.9 16
01:40 1019 30.09 849 25.07 0.9 33.7 44 -10 14
01:45 1019 30.09 849 25.07 1.5 34.8 44 -9.5 14.9
01:50 1019 30.09 848 25.04 1.5 34.7 43 -9.9 14.2
01:55 1019 30.09 848 25.04 1.4 34.5 46 -9.1 15.7
02:00 1019 30.09 848 25.04 1 33.7 46 -9.3 15.3
02:05 1019 30.09 848 25.04 1.1 34.1 44 -9.9 14.2
02:10 1019 30.09 848 25.04 1.5 34.7 43 -9.8 14.3
02:15 1019 30.09 848 25.04 1.3 34.3 46 -9.2 15.4
02:20 1019 30.09 848 25.04 1.1 33.9 46 -9.3 15.3
02:25 1019 30.09 848 25.04 1 33.8 46 -9.3 15.2
02:30 1019 30.09 848 25.04 1.1 33.9 46 -9.4 15.1
02:35 1019 30.09 848 25.04 1.2 34.1 45 -9.5 14.8
02:40 1019 30.09 848 25.04 1.5 34.6 44 -9.5 14.9
02:45 1019 30.09 848 25.04 1.5 34.8 43 -9.6 14.7
02:50 1019 30.09 848 25.04 1.6 34.9 44 -9.5 14.9
02:55 1019 30.09 848 25.04 1.6 34.9 43 -9.6 14.8
03:00 1019 30.09 848 25.04 1.7 35.1 43 -9.7 14.6
03:05 1019 30.09 848 25.04 1.9 35.5 42 -9.7 14.6
03:10 1019 30.09 848 25.04 2 35.6 42 -9.6 14.7
03:15 1019 30.09 848 25.04 1.9 35.4 43 -9.4 15.1
03:20 1019 30.09 849 25.07 1.4 34.6 45 -9.3 15.2
03:25 1019 30.09 849 25.07 1.1 34 45 -9.5 14.9
03:30 1019 30.09 849 25.07 1.1 34 44 -9.9 14.3
03:35 1019 30.09 849 25.07 1.2 34.2 45 -9.3 15.2
03:40 1019 30.09 848 25.04 0.8 33.4 48 -9.1 15.7
03:45 1019 30.09 848 25.04 0.7 33.3 50 -8.7 16.4
03:50 1019 30.09 848 25.04 0.5 33 49 -8.9 15.9
03:55 1019 30.09 848 25.04 0.3 32.5 51 -8.7 16.3
04:00 1019 30.09 848 25.04 0.1 32.1 50 -9.2 15.4
04:05 1019 30.09 848 25.04 0.6 33 47 -9.5 14.9
04:10 1019 30.09 848 25.04 1 33.8 45 -9.7 14.5
04:15 1019 30.09 848 25.04 0.9 33.7 46 -9.3 15.2
04:20 1019 30.09 848 25.04 0.7 33.2 48 -9.2 15.5
04:25 1019 30.09 848 25.04 0.3 32.6 48 -9.4 15.1
04:30 1019 30.09 848 25.04 0.3 32.5 46 -10.1 13.8
04:35 1019 30.09 848 25.04 0.7 33.3 46 -9.5 14.9
04:40 1019 30.09 848 25.04 0.7 33.2 46 -9.7 14.5
04:45 1019 30.09 848 25.04 0.7 33.2 47 -9.4 15.1
04:50 1019 30.09 848 25.04 0.4 32.7 48 -9.4 15.1
04:55 1019 30.09 848 25.04 0.1 32.2 49 -9.5 14.9
05:00 1019 30.09 848 25.04 0.1 32.1 49 -9.5 14.9
05:05 1019 30.09 848 25.04 0 32.1 48 -9.9 14.3
05:10 1019 30.09 848 25.04 0.2 32.4 45 -10.3 13.4
05:15 1019 30.09 848 25.04 0.7 33.2 45 -10 14.1
05:20 1019 30.09 848 25.04 0.9 33.6 46 -9.6 14.8
05:25 1019 30.09 848 25.04 0.8 33.4 45 -9.9 14.2
05:30 1019 30.09 848 25.04 1.1 33.9 45 -9.7 14.6
05:35 1019 30.09 848 25.04 0.8 33.5 47 -9.3 15.3
05:40 1019 30.09 848 25.04 0.3 32.5 48 -9.5 14.9
05:45 1019 30.09 848 25.04 0.2 32.4 47 -9.7 14.5
05:50 1018 30.06 848 25.04 0.3 32.5 46 -9.9 14.1
05:55 1018 30.06 848 25.04 0.9 33.5 44 -10.1 13.8
06:00 1018 30.06 848 25.04 1.1 34 44 -9.8 14.3
06:05 1019 30.09 848 25.04 1 33.8 45 -9.8 14.4
06:10 1018 30.06 848 25.04 0.9 33.6 45 -9.8 14.4
06:15 1018 30.06 848 25.04 0.8 33.5 45 -9.7 14.5
06:20 1018 30.06 848 25.04 0.7 33.2 45 -10 14
06:25 1018 30.06 848 25.04 0.7 33.3 45 -9.9 14.3
06:30 1018 30.06 848 25.04 0.6 33.2 45 -9.9 14.2
06:35 1018 30.06 848 25.04 0.5 32.8 46 -9.8 14.4
06:40 1019 30.09 848 25.04 0.3 32.6 46 -10.1 13.9
06:45 1019 30.09 848 25.04 0.3 32.6 45 -10.2 13.6
06:50 1019 30.09 848 25.04 0.4 32.8 44 -10.3 13.4
06:55 1019 30.09 848 25.04 0.5 32.9 44 -10.3 13.4
07:00 1019 30.09 848 25.04 0.6 33 44 -10.3 13.4
07:05 1019 30.09 848 25.04 0.6 33.1 44 -10.3 13.5
07:10 1019 30.09 848 25.04 0.7 33.3 44 -10.1 13.7
07:15 1019 30.09 848 25.04 0.8 33.4 44 -10.1 13.9
07:20 1019 30.09 848 25.04 0.5 32.9 45 -10.1 13.9
07:25 1018 30.06 848 25.04 0.3 32.5 45 -10.3 13.5
07:30 1018 30.06 848 25.04 0.4 32.8 45 -10.2 13.7
07:35 1018 30.06 848 25.04 0.5 32.8 45 -10.1 13.8
07:40 1018 30.06 848 25.04 0.3 32.6 46 -10.1 13.8
07:45 1018 30.06 848 25.04 0.2 32.4 47 -9.9 14.2
07:50 1018 30.06 848 25.04 0.2 32.4 47 -9.9 14.1
07:55 1018 30.06 848 25.04 0.2 32.3 46 -10.1 13.9
08:00 1018 30.06 847 25.01 0.1 32.2 46 -10.1 13.8
08:05 1018 30.06 847 25.01 0.2 32.4 46 -10 14
08:10 1018 30.06 847 25.01 0.2 32.4 47 -9.9 14.3
08:15 1018 30.06 847 25.01 0.2 32.3 47 -9.9 14.1
08:20 1018 30.06 847 25.01 0.2 32.3 47 -9.8 14.3
08:25 1018 30.06 847 25.01 0.2 32.4 46 -10.1 13.9
08:30 1018 30.06 847 25.01 0.5 32.9 45 -10.2 13.7
08:35 1018 30.06 847 25.01 0.6 33.1 44 -10.2 13.7
08:40 1018 30.06 847 25.01 1 33.8 43 -10.3 13.4
08:45 1018 30.06 847 25.01 1.4 34.5 42 -10.2 13.7
08:50 1018 30.06 847 25.01 1.4 34.5 42 -10.2 13.7
08:55 1018 30.06 847 25.01 1.5 34.7 42 -10.1 13.8
09:00 1018 30.06 847 25.01 1.6 35 39 -10.8 12.6
09:05 1018 30.06 847 25.01 2.1 35.8 38 -10.7 12.7
09:10 1018 30.06 847 25.01 2.6 36.7 38 -10.5 13.2
09:15 1018 30.06 848 25.04 3.2 37.7 37 -10.3 13.4
09:20 1018 30.06 847 25.01 3.7 38.7 35 -10.4 13.3
09:25 1018 30.06 847 25.01 3.9 39 35 -10.2 13.6
09:30 1018 30.06 847 25.01 4.1 39.4 34 -10.3 13.4
09:35 1018 30.06 847 25.01 4.5 40 35 -9.8 14.4
09:40 1018 30.06 847 25.01 4.8 40.6 37 -8.7 16.3
09:45 1018 30.06 847 25.01 4.7 40.5 33 -10.1 13.8
09:50 1018 30.06 847 25.01 4.7 40.5 33 -10.1 13.7
09:55 1018 30.06 847 25.01 5 41 33 -10 13.9
10:00 1018 30.06 847 25.01 5 41 31 -10.7 12.7
10:05 1018 30.06 847 25.01 5.3 41.6 32 -10.2 13.6
10:10 1018 30.06 847 25.01 6.3 43.4 31 -9.7 14.5
10:15 1018 30.06 847 25.01 6.9 44.4 30 -9.7 14.5
10:20 1018 30.06 847 25.01 7.9 46.2 27 -10 14
10:25 1018 30.06 847 25.01 7.2 44.9 28 -10.3 13.4
10:30 1018 30.06 847 25.01 7.1 44.8 27 -10.8 12.6
10:35 1018 30.06 847 25.01 7.7 45.9 25 -10.9 12.4
10:40 1017 30.03 847 25.01 8.3 46.9 24 -11 12.2
10:45 1017 30.03 847 25.01 9.1 48.4 23 -11.1 12.1
10:50 1017 30.03 847 25.01 9.1 48.4 22 -11.2 11.8
10:55 1017 30.03 847 25.01 9.6 49.3 22 -11.1 12.1
11:00 1017 30.03 847 25.01 10.7 51.3 21 -10.6 12.9
11:05 1017 30.03 846 24.98 10.9 51.7 20 -11.3 11.7
11:10 1017 30.03 846 24.98 10.7 51.3 21 -10.7 12.8
11:15 1017 30.03 846 24.98 10.4 50.6 21 -11.3 11.7
11:20 1017 30.03 846 24.98 10.5 50.9 21 -11 12.3
11:25 1017 30.03 846 24.98 11.8 53.3 20 -10.4 13.3
11:30 1017 30.03 846 24.98 13.1 55.6 17 -11.2 11.9
11:35 1017 30.03 846 24.98 12.9 55.3 19 -10.4 13.3
11:40 1017 30.03 846 24.98 12.2 54 20 -9.9 14.2
11:45 1017 30.03 846 24.98 12.8 55 19 -10.3 13.4
11:50 1017 30.03 846 24.98 13.1 55.6 20 -9.6 14.8
11:55 1017 30.03 846 24.98 13.5 56.2 19 -9.5 14.8
12:00 1017 30.03 846 24.98 13.7 56.6 21 -8.5 16.7
12:05 1017 30.03 846 24.98 12 53.6 25 -7.2 19.1
12:10 1017 30.03 846 24.98 10.9 51.6 27 -7.6 18.4
12:15 1017 30.03 846 24.98 11.1 52 26 -7.7 18.2
12:20 1017 30.03 846 24.98 11.6 52.9 24 -8.4 16.9
12:25 1016 30 846 24.98 11.4 52.5 25 -7.8 17.9
12:30 1016 30 846 24.98 11.7 53.1 24 -8 17.7
12:35 1016 30 845 24.95 12.8 55.1 23 -7.6 18.3
12:40 1016 30 845 24.95 13.4 56.1 22 -7.7 18.2
12:45 1016 30 845 24.95 14.2 57.6 21 -7.7 18.1
12:50 1016 30 845 24.95 14.2 57.5 21 -7.7 18.1
12:55 1016 30 845 24.95 14 57.1 23 -7.1 19.3
13:00 1016 30 845 24.95 14 57.2 22 -7.1 19.2
13:05 1016 30 845 24.95 14.1 57.4 21 -7.8 18
13:10 1016 30 845 24.95 14.7 58.5 19 -8.4 16.9
13:15 1016 30 845 24.95 14.9 58.9 21 -7.2 19.1
13:20 1016 30 845 24.95 13.7 56.7 21 -8.3 17
13:25 1015 29.97 845 24.95 14 57.2 20 -8.5 16.6
13:30 1015 29.97 845 24.95 13.5 56.2 19 -9.4 15
13:35 1015 29.97 845 24.95 14.4 57.9 18 -9.4 15
13:40 1015 29.97 845 24.95 15.2 59.3 18 -8.6 16.5
13:45 1015 29.97 845 24.95 15.6 60.1 19 -7.6 18.3
13:50 1015 29.97 845 24.95 15.7 60.2 18 -8.4 17
13:55 1015 29.97 844 24.92 15.6 60 18 -8.4 17
14:00 1015 29.97 844 24.92 15.7 60.3 17 -8.9 15.9
14:05 1015 29.97 844 24.92 15.7 60.3 17 -8.9 15.9
14:10 1015 29.97 844 24.92 15.8 60.4 18 -8.2 17.2
14:15 1015 29.97 844 24.92 14.6 58.2 19 -8.5 16.8
14:20 1015 29.97 844 24.92 15.2 59.4 19 -8.2 17.3
14:25 1015 29.97 844 24.92 15.3 59.5 15 -10.8 12.5
14:30 1015 29.97 844 24.92 15 59.1 19 -8.1 17.3
14:35 1015 29.97 844 24.92 15.2 59.4 17 -9.9 14.2
14:40 1014 29.94 844 24.92 14.8 58.6 18 -9.2 15.4
14:45 1014 29.94 844 24.92 15.2 59.3 18 -8.6 16.5
14:50 1014 29.94 844 24.92 14.6 58.4 19 -8.8 16.1
14:55 1014 29.94 843 24.89 15.4 59.7 16 -10.6 13
15:00 1014 29.94 843 24.89 15.4 59.8 17 -9.6 14.6
15:05 1014 29.94 843 24.89 15.4 59.7 17 -9.2 15.5
15:10 1014 29.94 843 24.89 14.9 58.8 18 -9.2 15.5
15:15 1014 29.94 843 24.89 14.8 58.7 19 -8.6 16.6
15:20 1014 29.94 843 24.89 14.9 58.9 18 -9.1 15.6
15:25 1014 29.94 843 24.89 15.3 59.6 18 -8.9 16
15:30 1013 29.91 843 24.89 15.6 60 15 -10.9 12.3
15:35 1013 29.91 842 24.86 15.2 59.4 18 -9.2 15.4
15:40 1013 29.91 842 24.86 15.1 59.1 17 -9.4 15
15:45 1013 29.91 842 24.86 14.8 58.7 18 -9.2 15.4
15:50 1013 29.91 842 24.86 15.2 59.3 20 -7.3 18.8
15:55 1013 29.91 842 24.86 15 59.1 18 -9 15.7
16:00 1013 29.91 842 24.86 13.9 57 20 -8.6 16.5
16:05 1013 29.91 842 24.86 14.5 58.1 18 -9.2 15.5
16:10 1013 29.91 842 24.86 14.8 58.7 17 -10.1 13.7
16:15 1013 29.91 842 24.86 14.3 57.8 17 -10.6 12.9
16:20 1013 29.91 842 24.86 14.5 58.2 18 -9.5 14.9
16:25 1013 29.91 842 24.86 14.9 58.8 17 -9.8 14.4
16:30 1012 29.88 842 24.86 14.7 58.4 19 -8.8 16.2
16:35 1012 29.88 842 24.86 15 59.1 17 -9.6 14.8
16:40 1012 29.88 842 24.86 14.6 58.4 18 -9 15.7
16:45 1012 29.88 842 24.86 13.2 55.8 21 -8.9 16
16:50 1012 29.88 842 24.86 12.1 53.8 23 -8.5 16.6
16:55 1012 29.88 842 24.86 11.6 52.9 22 -9.1 15.6
17:00 1012 29.88 842 24.86 11.6 52.8 25 -7.6 18.3
17:05 1012 29.88 841 24.83 11.1 52 26 -7.7 18.1
17:10 1012 29.88 841 24.83 11.1 52 25 -8 17.5
17:15 1012 29.88 841 24.83 10.8 51.5 28 -6.9 19.6
17:20 1012 29.88 841 24.83 10.4 50.7 29 -7 19.4
17:25 1012 29.88 841 24.83 10.2 50.4 28 -7.5 18.4
17:30 1012 29.88 841 24.83 10.4 50.7 26 -8.2 17.3
17:35 1012 29.88 841 24.83 10.5 50.9 26 -8.3 17.1
17:40 1012 29.88 841 24.83 10.5 50.9 26 -8.1 17.4
17:45 1012 29.88 841 24.83 10.3 50.5 27 -8.2 17.3
17:50 1012 29.88 841 24.83 10.1 50.2 28 -7.4 18.6
17:55 1012 29.88 841 24.83 10.5 50.8 22 -10.6 13
18:00 1012 29.88 841 24.83 11.1 52 22 -9.6 14.7
18:05 1012 29.88 841 24.83 11 51.8 21 -10.5 13
18:10 1012 29.88 841 24.83 11.3 52.3 21 -10 14
18:15 1012 29.88 841 24.83 11.3 52.4 21 -10 14
18:20 1011 29.85 841 24.83 11.2 52.2 20 -10.7 12.8
18:25 1011 29.85 841 24.83 11.2 52.1 21 -10.1 13.8
18:30 1012 29.88 841 24.83 10.9 51.7 22 -10.3 13.5
18:35 1012 29.88 841 24.83 10.3 50.5 25 -8.7 16.3
18:40 1012 29.88 841 24.83 9.5 49 26 -8.9 16
18:45 1012 29.88 841 24.83 9 48.2 27 -9.1 15.6
18:50 1012 29.88 841 24.83 9.3 48.8 23 -10.9 12.4
18:55 1012 29.88 841 24.83 9.8 49.7 22 -11.1 11.9
19:00 1012 29.88 841 24.83 9.9 49.8 23 -10 14
19:05 1012 29.88 841 24.83 9.6 49.3 24 -10.1 13.8
19:10 1012 29.88 841 24.83 9.5 49 25 -9.5 14.9
19:15 1012 29.88 841 24.83 9.3 48.7 25 -9.7 14.5
19:20 1012 29.88 841 24.83 9.3 48.8 23 -10.6 12.9
19:25 1012 29.88 841 24.83 9.2 48.6 27 -8.9 15.9
19:30 1012 29.88 841 24.83 8.4 47.1 29 -8.7 16.4
19:35 1012 29.88 841 24.83 8.1 46.6 30 -8.3 17
19:40 1012 29.88 841 24.83 8.1 46.5 28 -9.6 14.7
19:45 1012 29.88 841 24.83 8.4 47.1 26 -10 14
19:50 1012 29.88 841 24.83 8.7 47.6 26 -9.8 14.4
19:55 1012 29.88 841 24.83 8.6 47.4 27 -9.4 15.1
20:00 1012 29.88 841 24.83 8.5 47.3 27 -9.5 14.9
20:05 1012 29.88 842 24.86 8.7 47.7 26 -9.9 14.2
20:10 1012 29.88 842 24.86 8.9 48.1 27 -9.2 15.5
20:15 1012 29.88 842 24.86 8.7 47.6 27 -9.1 15.6
20:20 1013 29.91 842 24.86 8.5 47.4 28 -8.9 16
20:25 1013 29.91 842 24.86 8.3 46.9 29 -8.5 16.7
20:30 1013 29.91 842 24.86 8.2 46.8 30 -8.1 17.4
20:35 1013 29.91 842 24.86 8.1 46.7 28 -9.3 15.3
20:40 1013 29.91 842 24.86 8.2 46.8 28 -9.2 15.4
20:45 1013 29.91 842 24.86 8.6 47.4 29 -8.6 16.4
20:50 1013 29.91 842 24.86 8.9 48 28 -8.5 16.6
20:55 1013 29.91 842 24.86 9 48.3 28 -8.4 17
21:00 1013 29.91 842 24.86 9 48.2 29 -7.9 17.8
21:05 1013 29.91 842 24.86 8.9 48 30 -7.7 18.1
21:10 1013 29.91 842 24.86 8.8 47.9 31 -7.4 18.6
21:15 1013 29.91 842 24.86 8.5 47.3 33 -7 19.5
21:20 1013 29.91 842 24.86 8.3 46.9 33 -7 19.5
21:25 1013 29.91 842 24.86 8.2 46.8 33 -7 19.4
21:30 1013 29.91 842 24.86 8.1 46.6 34 -6.8 19.7
21:35 1013 29.91 842 24.86 8 46.4 36 -6.3 20.7
21:40 1013 29.91 842 24.86 7.9 46.3 37 -5.9 21.4
21:45 1013 29.91 842 24.86 7.8 46 37 -5.9 21.3
21:50 1013 29.91 842 24.86 7.8 46 39 -5.4 22.2
21:55 1013 29.91 842 24.86 7.7 45.8 40 -5.2 22.7
22:00 1013 29.91 842 24.86 7.6 45.7 40 -5 23
22:05 1013 29.91 842 24.86 7.6 45.6 42 -4.7 23.6
22:10 1013 29.91 842 24.86 7.5 45.4 43 -4.2 24.5
22:15 1013 29.91 842 24.86 7.3 45.1 46 -3.6 25.5
22:20 1013 29.91 842 24.86 7.2 44.9 47 -3.4 25.8
22:25 1013 29.91 843 24.89 7.1 44.9 48 -3.2 26.2
22:30 1013 29.91 842 24.86 7 44.6 48 -3.1 26.4
22:35 1013 29.91 842 24.86 7 44.6 50 -2.8 27
22:40 1013 29.91 842 24.86 7 44.5 50 -2.7 27.2
22:45 1013 29.91 842 24.86 6.9 44.4 51 -2.6 27.3
22:50 1013 29.91 842 24.86 6.9 44.4 51 -2.5 27.5
22:55 1013 29.91 842 24.86 6.7 44.1 52 -2.5 27.5
23:00 1013 29.91 842 24.86 6.3 43.4 53 -2.6 27.3
23:05 1013 29.91 842 24.86 6.2 43.1 53 -2.6 27.4
23:10 1013 29.91 843 24.89 6.1 42.9 54 -2.5 27.5
23:15 1013 29.91 842 24.86 5.9 42.7 55 -2.5 27.5
23:20 1013 29.91 842 24.86 6.1 42.9 52 -3.1 26.4
23:25 1013 29.91 842 24.86 6.4 43.5 52 -2.8 27
23:30 1013 29.91 842 24.86 6.2 43.2 54 -2.3 27.9
23:35 1013 29.91 842 24.86 5.9 42.6 54 -2.8 27
23:40 1013 29.91 842 24.86 6.2 43.2 50 -3.3 26
23:45 1013 29.91 842 24.86 6.5 43.7 49 -3.4 25.9
23:50 1013 29.91 842 24.86 6.5 43.7 50 -3.1 26.5
23:55 1013 29.91 842 24.86 6.4 43.6 49 -3.6 25.5
24:00 1013 29.91 842 24.86 6.5 43.8 47 -3.8 25.1